Time;durP1;ratioP1;P1;durP2;ratioP2;P2;SDS_P1;SDS_P2;PMS_P1;PMS_P2;Temp;Humidity;BMP_temperature;BMP_pressure;BME280_temperature;BME280_humidity;BME280_pressure;Samples;Min_cycle;Max_cycle;Signal;HPM_P1;HPM_P2
2021/04/26 00:01:15;;;;;;;5.90;3.63;;;;;;;;;;5011466;28;20193;-71
2021/04/26 00:03:41;;;;;;;5.97;3.80;;;;;;;;;;5012779;28;20183;-72
2021/04/26 00:06:07;;;;;;;4.77;3.40;;;;;;;;;;5012867;28;20187;-72
2021/04/26 00:08:33;;;;;;;6.17;3.70;;;;;;;;;;5012489;28;20185;-72
2021/04/26 00:10:59;;;;;;;6.17;3.63;;;;;;;;;;5012770;28;20214;-73
2021/04/26 00:13:25;;;;;;;6.37;4.13;;;;;;;;;;5011423;28;20712;-72
2021/04/26 00:15:51;;;;;;;7.20;3.57;;;;;;;;;;4994897;28;20183;-72
2021/04/26 00:18:17;;;;;;;7.13;3.57;;;;;;;;;;5011230;28;20178;-72
2021/04/26 00:20:43;;;;;;;4.53;3.50;;;;;;;;;;5011345;28;20187;-71
2021/04/26 00:23:09;;;;;;;5.30;3.47;;;;;;;;;;5011177;28;20178;-72
2021/04/26 00:25:35;;;;;;;6.63;3.83;;;;;;;;;;5012596;28;20182;-72
2021/04/26 00:28:01;;;;;;;6.93;3.67;;;;;;;;;;4994685;28;20185;-72
2021/04/26 00:30:27;;;;;;;7.03;3.90;;;;;;;;;;5010992;28;20224;-72
2021/04/26 00:32:53;;;;;;;6.20;3.40;;;;;;;;;;5012334;28;20185;-71
2021/04/26 00:35:19;;;;;;;6.63;3.60;;;;;;;;;;5011061;28;20180;-72
2021/04/26 00:37:46;;;;;;;5.70;3.30;;;;;;;;;;5010806;28;20634;-72
2021/04/26 00:40:12;;;;;;;5.07;3.50;;;;;;;;;;5010823;28;20238;-72
2021/04/26 00:42:38;;;;;;;4.03;3.33;;;;;;;;;;5012180;28;20204;-71
2021/04/26 00:45:08;;;;;;;6.67;3.63;;;;;;;;;;4994245;28;20197;-72
2021/04/26 00:47:34;;;;;;;6.03;3.37;;;;;;;;;;5010512;28;20632;-72
2021/04/26 00:50:00;;;;;;;7.37;3.73;;;;;;;;;;5010918;28;20211;-71
2021/04/26 00:52:26;;;;;;;5.23;3.60;;;;;;;;;;5010707;28;20242;-74
2021/04/26 00:54:52;;;;;;;7.73;3.83;;;;;;;;;;4994529;28;20227;-74
2021/04/26 00:57:18;;;;;;;6.27;3.73;;;;;;;;;;5011634;28;20215;-74
2021/04/26 00:59:44;;;;;;;5.97;3.27;;;;;;;;;;4994206;28;20315;-74
2021/04/26 01:02:10;;;;;;;6.97;3.63;;;;;;;;;;5010477;28;20225;-76
2021/04/26 01:04:36;;;;;;;5.00;3.00;;;;;;;;;;5011927;28;20267;-75
2021/04/26 01:07:02;;;;;;;4.80;3.00;;;;;;;;;;5011802;28;20183;-74
2021/04/26 01:09:28;;;;;;;4.87;3.20;;;;;;;;;;5010314;28;20213;-74
2021/04/26 01:12:02;;;;;;;4.93;3.10;;;;;;;;;;5010492;28;20262;-74
2021/04/26 01:14:28;;;;;;;4.20;3.20;;;;;;;;;;5009252;28;20182;-75
2021/04/26 01:16:57;;;;;;;4.33;3.40;;;;;;;;;;5010249;28;20216;-74
2021/04/26 01:19:35;;;;;;;3.93;2.83;;;;;;;;;;4993937;28;20208;-74
2021/04/26 01:22:09;;;;;;;6.07;3.23;;;;;;;;;;5011296;28;20197;-75
2021/04/26 01:24:51;;;;;;;5.77;2.70;;;;;;;;;;5009443;28;20179;-75
2021/04/26 01:27:36;;;;;;;5.70;2.97;;;;;;;;;;5011028;28;20594;-77
2021/04/26 01:30:12;;;;;;;6.03;2.97;;;;;;;;;;5015492;28;20226;-74
2021/04/26 01:32:41;;;;;;;4.97;2.90;;;;;;;;;;5009300;28;20187;-74
2021/04/26 01:35:07;;;;;;;4.40;2.97;;;;;;;;;;5011037;28;20188;-75
2021/04/26 01:37:35;;;;;;;5.17;3.23;;;;;;;;;;5009447;28;20286;-74
2021/04/26 01:40:01;;;;;;;5.20;3.03;;;;;;;;;;5007054;28;20201;-75
2021/04/26 01:42:27;;;;;;;5.17;2.90;;;;;;;;;;5009474;28;20174;-74
2021/04/26 01:44:53;;;;;;;4.67;3.10;;;;;;;;;;5009691;28;20269;-75
2021/04/26 01:47:19;;;;;;;6.33;2.83;;;;;;;;;;5009060;28;20300;-79
2021/04/26 01:49:45;;;;;;;5.33;3.30;;;;;;;;;;5009357;28;20207;-75
2021/04/26 01:52:11;;;;;;;4.83;3.30;;;;;;;;;;4992028;28;20657;-76
2021/04/26 01:54:37;;;;;;;3.23;2.47;;;;;;;;;;4984747;28;20209;-75
2021/04/26 01:57:04;;;;;;;4.07;2.77;;;;;;;;;;5009445;28;20255;-74
2021/04/26 01:59:30;;;;;;;4.47;2.80;;;;;;;;;;5012723;28;20246;-74
2021/04/26 02:01:56;;;;;;;7.63;2.97;;;;;;;;;;4997112;28;20275;-74
2021/04/26 02:04:22;;;;;;;4.20;2.90;;;;;;;;;;5013162;28;20173;-74
2021/04/26 02:06:48;;;;;;;4.13;2.53;;;;;;;;;;5013371;28;20224;-74
2021/04/26 02:09:14;;;;;;;3.60;2.50;;;;;;;;;;5013883;28;20236;-74
2021/04/26 02:11:40;;;;;;;5.43;2.63;;;;;;;;;;4999818;28;20255;-74
2021/04/26 02:14:06;;;;;;;5.80;2.90;;;;;;;;;;5013052;28;20185;-74
2021/04/26 02:16:33;;;;;;;7.03;3.20;;;;;;;;;;5014111;28;20573;-74
2021/04/26 02:18:59;;;;;;;4.67;2.80;;;;;;;;;;5013249;28;20282;-74
2021/04/26 02:21:25;;;;;;;3.30;2.50;;;;;;;;;;5013482;28;20212;-75
2021/04/26 02:23:50;;;;;;;8.57;3.23;;;;;;;;;;5013218;28;20191;-74
2021/04/26 02:26:16;;;;;;;3.70;2.83;;;;;;;;;;5014702;28;20216;-74
2021/04/26 02:28:42;;;;;;;5.27;2.97;;;;;;;;;;5012847;28;20209;-75
2021/04/26 02:31:08;;;;;;;4.23;2.77;;;;;;;;;;5014379;28;20240;-74
2021/04/26 02:33:35;;;;;;;4.97;2.80;;;;;;;;;;4997129;28;20216;-74
2021/04/26 02:36:06;;;;;;;4.73;2.70;;;;;;;;;;5013168;28;20288;-75
2021/04/26 02:38:37;;;;;;;3.87;2.70;;;;;;;;;;5012637;28;20173;-74
2021/04/26 02:41:05;;;;;;;5.00;3.10;;;;;;;;;;5014157;28;20178;-75
2021/04/26 02:43:31;;;;;;;3.90;2.70;;;;;;;;;;5012903;28;20179;-75
2021/04/26 02:45:57;;;;;;;2.83;2.50;;;;;;;;;;4996699;28;20183;-74
2021/04/26 02:48:23;;;;;;;4.23;2.57;;;;;;;;;;4996501;28;20180;-74
2021/04/26 02:50:53;;;;;;;4.53;3.10;;;;;;;;;;5012415;28;20182;-75
2021/04/26 02:53:19;;;;;;;3.43;2.63;;;;;;;;;;5012705;28;20279;-74
2021/04/26 02:55:45;;;;;;;4.90;3.03;;;;;;;;;;4996345;28;20628;-74
2021/04/26 02:58:11;;;;;;;3.53;2.73;;;;;;;;;;5012616;28;20185;-74
2021/04/26 03:00:37;;;;;;;5.63;2.80;;;;;;;;;;5011838;28;20203;-74
2021/04/26 03:03:03;;;;;;;4.27;2.97;;;;;;;;;;5012402;28;20221;-74
2021/04/26 03:05:29;;;;;;;4.20;2.60;;;;;;;;;;4996218;28;20272;-74
2021/04/26 03:07:55;;;;;;;5.70;2.93;;;;;;;;;;5013618;28;20672;-74
2021/04/26 03:10:21;;;;;;;5.53;3.10;;;;;;;;;;5012086;28;20773;-74
2021/04/26 03:12:51;;;;;;;3.70;2.60;;;;;;;;;;5012260;28;20707;-75
2021/04/26 03:15:18;;;;;;;5.33;3.07;;;;;;;;;;5013819;28;20206;-75
2021/04/26 03:17:44;;;;;;;5.70;3.13;;;;;;;;;;5012048;28;20213;-75
2021/04/26 03:20:12;;;;;;;5.60;2.97;;;;;;;;;;5013688;28;20309;-76
2021/04/26 03:22:38;;;;;;;4.50;3.13;;;;;;;;;;5012135;28;20234;-74
2021/04/26 03:25:05;;;;;;;3.10;2.50;;;;;;;;;;5012336;28;20186;-74
2021/04/26 03:27:31;;;;;;;3.73;2.80;;;;;;;;;;4995413;28;20211;-79
2021/04/26 03:29:57;;;;;;;6.00;3.23;;;;;;;;;;5024369;23;20227;-75
2021/04/26 03:32:23;;;;;;;3.97;2.80;;;;;;;;;;4979832;28;20270;-75
2021/04/26 03:34:48;;;;;;;4.93;2.90;;;;;;;;;;5013591;28;20264;-75
2021/04/26 03:37:18;;;;;;;6.43;3.10;;;;;;;;;;4995892;28;20509;-75
2021/04/26 03:39:44;;;;;;;4.43;2.80;;;;;;;;;;4995808;28;20194;-75
2021/04/26 03:42:10;;;;;;;4.20;2.70;;;;;;;;;;5013546;28;20272;-75
2021/04/26 03:44:36;;;;;;;3.90;2.70;;;;;;;;;;5013431;28;20546;-75
2021/04/26 03:47:03;;;;;;;7.23;3.20;;;;;;;;;;4995901;28;20189;-76
2021/04/26 03:49:29;;;;;;;4.40;3.03;;;;;;;;;;4979044;28;20209;-76
2021/04/26 03:51:55;;;;;;;3.20;2.70;;;;;;;;;;5013149;28;20181;-76
2021/04/26 03:54:21;;;;;;;3.73;2.90;;;;;;;;;;4995363;28;20254;-76
2021/04/26 03:56:47;;;;;;;3.97;2.90;;;;;;;;;;5013091;28;20250;-76
2021/04/26 03:59:13;;;;;;;5.40;3.20;;;;;;;;;;5012614;28;20186;-76
2021/04/26 04:01:39;;;;;;;4.13;3.33;;;;;;;;;;4995675;28;20181;-76
2021/04/26 04:04:05;;;;;;;3.83;3.07;;;;;;;;;;5012854;28;20178;-76
2021/04/26 04:06:31;;;;;;;5.33;3.37;;;;;;;;;;5012947;28;20182;-76
2021/04/26 04:09:07;;;;;;;4.27;3.10;;;;;;;;;;4995199;28;20172;-75
2021/04/26 04:11:33;;;;;;;6.30;3.40;;;;;;;;;;4995429;28;20170;-74
2021/04/26 04:13:59;;;;;;;5.77;3.53;;;;;;;;;;4994911;28;20209;-76
2021/04/26 04:16:25;;;;;;;6.33;3.20;;;;;;;;;;4995151;28;20233;-76
2021/04/26 04:18:51;;;;;;;7.03;3.30;;;;;;;;;;4978689;28;20189;-76
2021/04/26 04:21:17;;;;;;;4.37;3.30;;;;;;;;;;4994183;28;20195;-76
2021/04/26 04:23:43;;;;;;;6.30;3.50;;;;;;;;;;4978627;28;20566;-76
2021/04/26 04:26:09;;;;;;;4.40;2.60;;;;;;;;;;4994966;28;20186;-74
2021/04/26 04:28:35;;;;;;;5.23;3.37;;;;;;;;;;4994843;28;20181;-76
2021/04/26 04:31:01;;;;;;;3.63;3.17;;;;;;;;;;4994781;28;20217;-76
2021/04/26 04:33:27;;;;;;;5.30;3.40;;;;;;;;;;4995005;28;20260;-76
2021/04/26 04:35:53;;;;;;;4.63;3.50;;;;;;;;;;4978323;28;20343;-76
2021/04/26 04:38:19;;;;;;;5.47;3.10;;;;;;;;;;4994845;28;20265;-76
2021/04/26 04:40:45;;;;;;;6.60;3.70;;;;;;;;;;5012210;28;20333;-76
2021/04/26 04:43:11;;;;;;;5.80;3.67;;;;;;;;;;5012162;28;20182;-77
2021/04/26 04:45:37;;;;;;;5.97;3.80;;;;;;;;;;4978792;28;20548;-76
2021/04/26 04:48:04;;;;;;;7.40;3.80;;;;;;;;;;5011142;28;20293;-76
2021/04/26 04:50:30;;;;;;;6.47;3.73;;;;;;;;;;4991981;28;20289;-76
2021/04/26 04:52:56;;;;;;;9.03;3.60;;;;;;;;;;5010626;28;20637;-76
2021/04/26 04:55:22;;;;;;;9.40;3.80;;;;;;;;;;4993477;28;20248;-76
2021/04/26 04:57:48;;;;;;;7.87;3.40;;;;;;;;;;5011651;28;20710;-76
2021/04/26 05:00:14;;;;;;;9.23;3.67;;;;;;;;;;4993981;28;20201;-73
2021/04/26 05:02:40;;;;;;;10.70;3.70;;;;;;;;;;4994537;28;20177;-76
2021/04/26 05:05:06;;;;;;;8.83;3.80;;;;;;;;;;4994959;28;20183;-76
2021/04/26 05:07:32;;;;;;;14.33;4.43;;;;;;;;;;4994625;28;20535;-76
2021/04/26 05:09:58;;;;;;;7.63;3.53;;;;;;;;;;4994054;28;20202;-76
2021/04/26 05:12:24;;;;;;;5.53;3.80;;;;;;;;;;4994221;28;20259;-76
2021/04/26 05:14:51;;;;;;;6.90;3.10;;;;;;;;;;4978549;28;20551;-75
2021/04/26 05:17:17;;;;;;;10.07;3.70;;;;;;;;;;5011881;28;20214;-74
2021/04/26 05:19:43;;;;;;;7.10;3.67;;;;;;;;;;4994001;28;20201;-76
2021/04/26 05:22:09;;;;;;;12.77;3.93;;;;;;;;;;4978055;28;20184;-76
2021/04/26 05:24:35;;;;;;;6.53;3.70;;;;;;;;;;4994251;28;20680;-75
2021/04/26 05:27:01;;;;;;;12.37;3.93;;;;;;;;;;5011895;28;20209;-75
2021/04/26 05:29:27;;;;;;;11.83;3.67;;;;;;;;;;5011388;28;20206;-75
2021/04/26 05:31:53;;;;;;;5.97;3.23;;;;;;;;;;4994016;28;20207;-75
2021/04/26 05:34:19;;;;;;;7.50;4.23;;;;;;;;;;4993726;28;20209;-75
2021/04/26 05:36:45;;;;;;;11.13;4.10;;;;;;;;;;5011533;28;20207;-76
2021/04/26 05:39:11;;;;;;;9.50;4.00;;;;;;;;;;4977564;28;20182;-75
2021/04/26 05:41:37;;;;;;;8.43;3.80;;;;;;;;;;4994228;28;20669;-76
2021/04/26 05:44:03;;;;;;;9.33;4.27;;;;;;;;;;4978114;28;20776;-74
2021/04/26 05:46:29;;;;;;;11.07;4.00;;;;;;;;;;5012288;28;20190;-73
2021/04/26 05:48:55;;;;;;;7.80;3.17;;;;;;;;;;4978673;28;20593;-72
2021/04/26 05:51:21;;;;;;;7.07;3.53;;;;;;;;;;5011302;28;20210;-74
2021/04/26 05:53:47;;;;;;;5.33;2.77;;;;;;;;;;5012095;28;20263;-73
2021/04/26 05:56:13;;;;;;;4.97;2.40;;;;;;;;;;5011362;28;20700;-73
2021/04/26 05:58:39;;;;;;;3.07;2.00;;;;;;;;;;4993459;28;20225;-73
2021/04/26 06:01:05;;;;;;;3.50;2.10;;;;;;;;;;4977162;28;20238;-73
2021/04/26 06:03:31;;;;;;;3.13;1.90;;;;;;;;;;4993220;28;20233;-73
2021/04/26 06:05:57;;;;;;;5.10;2.17;;;;;;;;;;4993484;28;20175;-73
2021/04/26 06:08:24;;;;;;;3.00;2.40;;;;;;;;;;4993645;28;20172;-72
2021/04/26 06:10:50;;;;;;;6.63;2.30;;;;;;;;;;4993436;28;20199;-73
2021/04/26 06:13:16;;;;;;;8.00;2.50;;;;;;;;;;4993581;28;20226;-73
2021/04/26 06:15:42;;;;;;;4.40;2.23;;;;;;;;;;4993373;28;20184;-73
2021/04/26 06:18:15;;;;;;;5.30;2.40;;;;;;;;;;5010517;28;20550;-71
2021/04/26 06:20:41;;;;;;;2.67;2.10;;;;;;;;;;4993268;28;20203;-71
2021/04/26 06:23:07;;;;;;;4.17;2.43;;;;;;;;;;4995418;28;20710;-71
2021/04/26 06:25:33;;;;;;;3.70;2.07;;;;;;;;;;4992922;28;20274;-71
2021/04/26 06:28:00;;;;;;;4.90;2.30;;;;;;;;;;4975371;28;20226;-72
2021/04/26 06:30:26;;;;;;;4.27;2.10;;;;;;;;;;4994164;28;20215;-72
2021/04/26 06:32:51;;;;;;;3.83;2.30;;;;;;;;;;4993276;28;20186;-72
2021/04/26 06:35:17;;;;;;;5.80;2.40;;;;;;;;;;4993229;28;20241;-72
2021/04/26 06:37:43;;;;;;;4.03;2.30;;;;;;;;;;5011007;28;20258;-72
2021/04/26 06:40:10;;;;;;;2.90;2.03;;;;;;;;;;4992677;28;20679;-73
2021/04/26 06:42:36;;;;;;;4.60;2.57;;;;;;;;;;4993356;28;20177;-73
2021/04/26 06:45:01;;;;;;;3.20;2.20;;;;;;;;;;4996003;28;20505;-72
2021/04/26 06:47:27;;;;;;;3.17;2.30;;;;;;;;;;4996977;28;20258;-72
2021/04/26 06:49:53;;;;;;;4.37;2.70;;;;;;;;;;4980558;28;20203;-71
2021/04/26 06:52:19;;;;;;;3.67;2.47;;;;;;;;;;4996840;28;20187;-71
2021/04/26 06:54:46;;;;;;;4.23;2.50;;;;;;;;;;5014570;28;20272;-71
2021/04/26 06:57:12;;;;;;;4.73;2.27;;;;;;;;;;4996861;28;20262;-72
2021/04/26 06:59:38;;;;;;;3.53;2.20;;;;;;;;;;5014052;28;20316;-72
2021/04/26 07:02:04;;;;;;;4.63;2.10;;;;;;;;;;5014056;28;20273;-72
2021/04/26 07:04:30;;;;;;;2.77;2.20;;;;;;;;;;4996857;28;20182;-71
2021/04/26 07:06:56;;;;;;;9.27;2.50;;;;;;;;;;5014205;28;20265;-71
2021/04/26 07:09:23;;;;;;;5.73;2.43;;;;;;;;;;5013946;28;20185;-72
2021/04/26 07:11:49;;;;;;;5.10;2.53;;;;;;;;;;4996623;28;20175;-71
2021/04/26 07:14:15;;;;;;;7.03;3.00;;;;;;;;;;5013352;28;20629;-72
2021/04/26 07:16:41;;;;;;;5.00;2.60;;;;;;;;;;4995112;28;20583;-72
2021/04/26 07:19:07;;;;;;;4.03;2.40;;;;;;;;;;4994662;28;20178;-71
2021/04/26 07:21:34;;;;;;;5.47;2.40;;;;;;;;;;4996291;28;20210;-73
2021/04/26 07:24:00;;;;;;;5.40;2.57;;;;;;;;;;4996293;28;20277;-71
2021/04/26 07:26:26;;;;;;;5.07;2.53;;;;;;;;;;4995941;28;20669;-72
2021/04/26 07:28:52;;;;;;;5.43;2.67;;;;;;;;;;5013506;28;20232;-71
2021/04/26 07:31:17;;;;;;;8.67;2.80;;;;;;;;;;4979686;28;20225;-73
2021/04/26 07:33:43;;;;;;;4.47;2.20;;;;;;;;;;5013437;28;20291;-73
2021/04/26 07:36:09;;;;;;;2.70;2.20;;;;;;;;;;5013310;28;20179;-73
2021/04/26 07:38:35;;;;;;;3.80;2.50;;;;;;;;;;5013341;28;20189;-73
2021/04/26 07:41:01;;;;;;;5.60;2.23;;;;;;;;;;5013106;28;20562;-74
2021/04/26 07:43:27;;;;;;;3.90;2.03;;;;;;;;;;4979573;28;20660;-74
2021/04/26 07:45:53;;;;;;;2.83;2.00;;;;;;;;;;4995926;28;20178;-75
2021/04/26 07:48:19;;;;;;;4.93;2.30;;;;;;;;;;5013137;28;20525;-74
2021/04/26 07:50:46;;;;;;;3.07;2.10;;;;;;;;;;4995854;28;20195;-74
2021/04/26 07:53:12;;;;;;;4.30;2.03;;;;;;;;;;4979359;28;20257;-74
2021/04/26 07:55:38;;;;;;;4.00;2.20;;;;;;;;;;4995833;28;20522;-73
2021/04/26 07:58:04;;;;;;;6.60;2.27;;;;;;;;;;4979129;28;20607;-74
2021/04/26 08:00:31;;;;;;;4.03;2.33;;;;;;;;;;4995466;28;20666;-72
2021/04/26 08:02:57;;;;;;;4.97;2.30;;;;;;;;;;4978486;28;20188;-72
2021/04/26 08:05:23;;;;;;;5.73;2.43;;;;;;;;;;5005285;28;20658;-72
2021/04/26 08:07:49;;;;;;;3.83;2.33;;;;;;;;;;5001970;28;20282;-72
2021/04/26 08:10:15;;;;;;;2.30;2.00;;;;;;;;;;4989367;28;20924;-71
2021/04/26 08:12:41;;;;;;;4.20;2.40;;;;;;;;;;5000506;28;20273;-72
2021/04/26 08:15:08;;;;;;;2.53;1.90;;;;;;;;;;4999735;28;20316;-72
2021/04/26 08:17:34;;;;;;;5.53;2.73;;;;;;;;;;5001892;28;20201;-72
2021/04/26 08:20:00;;;;;;;13.43;4.90;;;;;;;;;;5012127;28;20259;-71
2021/04/26 08:22:26;;;;;;;4.40;2.47;;;;;;;;;;5012167;28;20183;-71
2021/04/26 08:24:52;;;;;;;4.50;2.23;;;;;;;;;;5003802;28;20186;-71
2021/04/26 08:27:18;;;;;;;3.13;2.00;;;;;;;;;;4998390;28;20183;-70
2021/04/26 08:29:43;;;;;;;3.63;2.00;;;;;;;;;;5011890;28;20299;-71
2021/04/26 08:32:09;;;;;;;3.77;2.13;;;;;;;;;;5012449;28;20187;-71
2021/04/26 08:34:35;;;;;;;4.13;2.20;;;;;;;;;;5012414;28;20193;-71
2021/04/26 08:37:01;;;;;;;3.27;2.20;;;;;;;;;;5012411;28;20214;-70
2021/04/26 08:39:27;;;;;;;6.33;2.13;;;;;;;;;;5012229;28;20230;-71
2021/04/26 08:41:53;;;;;;;2.50;2.10;;;;;;;;;;4994886;28;20183;-70
2021/04/26 08:44:19;;;;;;;3.17;2.13;;;;;;;;;;5012240;28;20179;-71
2021/04/26 08:46:45;;;;;;;4.23;2.47;;;;;;;;;;4994816;28;20188;-71
2021/04/26 08:49:12;;;;;;;3.33;2.37;;;;;;;;;;5011774;28;20180;-71
2021/04/26 08:51:39;;;;;;;4.40;2.33;;;;;;;;;;5012305;28;20183;-71
2021/04/26 08:54:05;;;;;;;6.10;2.57;;;;;;;;;;5001609;28;20191;-71
2021/04/26 08:56:31;;;;;;;4.53;2.33;;;;;;;;;;4996143;28;20202;-71
2021/04/26 08:58:57;;;;;;;5.83;2.40;;;;;;;;;;5011739;28;20176;-71
2021/04/26 09:01:23;;;;;;;3.13;2.00;;;;;;;;;;5011972;28;20206;-71
2021/04/26 09:03:49;;;;;;;4.10;1.97;;;;;;;;;;5012371;28;20176;-71
2021/04/26 09:06:15;;;;;;;4.77;2.17;;;;;;;;;;5000028;28;20265;-72
2021/04/26 09:08:50;;;;;;;5.57;1.90;;;;;;;;;;4994276;28;20179;-71
2021/04/26 09:11:16;;;;;;;2.40;1.90;;;;;;;;;;5005278;28;20251;-71
2021/04/26 09:13:44;;;;;;;4.03;1.83;;;;;;;;;;5011112;28;20290;-71
2021/04/26 09:16:11;;;;;;;4.10;1.97;;;;;;;;;;4986842;28;20202;-72
2021/04/26 09:18:55;;;;;;;2.00;1.70;;;;;;;;;;5012158;28;20179;-71
2021/04/26 09:21:24;;;;;;;2.27;1.80;;;;;;;;;;5012419;28;20198;-71
2021/04/26 09:24:09;;;;;;;2.83;2.10;;;;;;;;;;5010775;28;20534;-71
2021/04/26 09:26:35;;;;;;;4.17;2.03;;;;;;;;;;5010665;28;20269;-72
2021/04/26 09:29:10;;;;;;;4.03;1.90;;;;;;;;;;5012129;28;20216;-72
2021/04/26 09:31:36;;;;;;;4.33;2.13;;;;;;;;;;5034751;23;20614;-72
2021/04/26 09:34:02;;;;;;;4.47;2.00;;;;;;;;;;5050272;28;20173;-72
2021/04/26 09:36:32;;;;;;;4.30;1.90;;;;;;;;;;5050670;28;20210;-72
2021/04/26 09:39:00;;;;;;;2.77;2.10;;;;;;;;;;5050547;28;20208;-72
2021/04/26 09:41:32;;;;;;;2.67;2.20;;;;;;;;;;5058104;28;20556;-72
2021/04/26 09:44:01;;;;;;;2.83;1.90;;;;;;;;;;5071666;28;20177;-72
2021/04/26 09:46:39;;;;;;;4.63;2.10;;;;;;;;;;5071906;28;20181;-72
2021/04/26 09:49:24;;;;;;;2.83;2.00;;;;;;;;;;5071453;28;20184;-72
2021/04/26 09:51:54;;;;;;;2.80;2.27;;;;;;;;;;5070636;28;20568;-73
2021/04/26 09:54:39;;;;;;;3.93;2.03;;;;;;;;;;5070636;28;20537;-73
2021/04/26 09:57:05;;;;;;;1.97;1.70;;;;;;;;;;5070313;28;20242;-73
2021/04/26 09:59:31;;;;;;;3.43;2.20;;;;;;;;;;5053581;28;20249;-73
2021/04/26 10:01:57;;;;;;;3.13;1.90;;;;;;;;;;5070505;28;20200;-73
2021/04/26 10:04:23;;;;;;;3.80;2.10;;;;;;;;;;5071466;28;20182;-72
2021/04/26 10:06:49;;;;;;;4.87;1.90;;;;;;;;;;5070377;28;20223;-72
2021/04/26 10:09:15;;;;;;;4.90;2.20;;;;;;;;;;5071379;28;20257;-72
2021/04/26 10:11:41;;;;;;;3.10;1.90;;;;;;;;;;5070420;28;20405;-72
2021/04/26 10:14:08;;;;;;;3.17;1.90;;;;;;;;;;5071312;28;20705;-72
2021/04/26 10:16:34;;;;;;;5.03;3.13;;;;;;;;;;5070348;28;20215;-73
2021/04/26 10:19:00;;;;;;;3.57;2.10;;;;;;;;;;5072340;28;20549;-73
2021/04/26 10:21:26;;;;;;;3.10;2.10;;;;;;;;;;5074136;28;20193;-73
2021/04/26 10:23:53;;;;;;;3.03;2.00;;;;;;;;;;5075083;28;20182;-72
2021/04/26 10:26:37;;;;;;;4.63;2.10;;;;;;;;;;5074002;28;20189;-72
2021/04/26 10:29:10;;;;;;;3.57;2.23;;;;;;;;;;5074992;28;20181;-73
2021/04/26 10:31:59;;;;;;;2.20;2.00;;;;;;;;;;5073794;28;20213;-73
2021/04/26 10:34:29;;;;;;;3.43;2.03;;;;;;;;;;5073748;28;20286;-73
2021/04/26 10:36:57;;;;;;;3.13;2.00;;;;;;;;;;5073684;28;20292;-73
2021/04/26 10:39:24;;;;;;;3.93;1.97;;;;;;;;;;5073631;28;20174;-73
2021/04/26 10:41:55;;;;;;;3.33;1.90;;;;;;;;;;5057037;28;20197;-73
2021/04/26 10:44:39;;;;;;;5.63;2.03;;;;;;;;;;5074696;28;20198;-73
2021/04/26 10:47:17;;;;;;;2.43;2.00;;;;;;;;;;5073524;28;20216;-74
2021/04/26 10:49:46;;;;;;;3.30;1.90;;;;;;;;;;5070316;28;20190;-74
2021/04/26 10:52:28;;;;;;;3.23;1.70;;;;;;;;;;5062505;28;20305;-73
2021/04/26 10:54:58;;;;;;;2.77;1.90;;;;;;;;;;5054591;28;20186;-73
2021/04/26 10:57:34;;;;;;;3.67;2.30;;;;;;;;;;5061719;28;20264;-73
2021/04/26 11:00:26;;;;;;;3.50;1.90;;;;;;;;;;5052013;28;20649;-73
2021/04/26 11:02:53;;;;;;;7.37;4.10;;;;;;;;;;5043546;28;20202;-74
2021/04/26 11:05:22;;;;;;;4.20;2.20;;;;;;;;;;5053909;28;20182;-73
2021/04/26 11:07:52;;;;;;;2.60;1.80;;;;;;;;;;5062665;28;20182;-73
2021/04/26 11:10:27;;;;;;;4.50;2.00;;;;;;;;;;5065356;28;20222;-73
2021/04/26 11:12:53;;;;;;;4.97;2.20;;;;;;;;;;5063331;28;20552;-73
2021/04/26 11:15:20;;;;;;;3.13;2.07;;;;;;;;;;5064832;28;20184;-74
2021/04/26 11:17:46;;;;;;;2.67;2.03;;;;;;;;;;5063194;28;20206;-73
2021/04/26 11:20:15;;;;;;;5.83;1.90;;;;;;;;;;5062562;28;20188;-74
2021/04/26 11:22:42;;;;;;;4.03;2.20;;;;;;;;;;5063736;28;20762;-73
2021/04/26 11:25:09;;;;;;;4.60;2.10;;;;;;;;;;5057058;28;20250;-73
2021/04/26 11:27:35;;;;;;;2.40;2.00;;;;;;;;;;5053054;28;20190;-73
2021/04/26 11:30:01;;;;;;;4.60;2.27;;;;;;;;;;5053012;28;20209;-73
2021/04/26 11:32:27;;;;;;;3.93;1.90;;;;;;;;;;5054420;28;20213;-73
2021/04/26 11:34:54;;;;;;;2.60;2.10;;;;;;;;;;5056430;28;20232;-74
2021/04/26 11:37:23;;;;;;;2.77;1.93;;;;;;;;;;5072620;28;20209;-73
2021/04/26 11:39:51;;;;;;;2.67;2.20;;;;;;;;;;5063223;28;20185;-74
2021/04/26 11:42:21;;;;;;;4.10;2.50;;;;;;;;;;5054489;28;20243;-73
2021/04/26 11:44:47;;;;;;;4.30;2.30;;;;;;;;;;5052509;28;20180;-74
2021/04/26 11:47:13;;;;;;;3.20;2.10;;;;;;;;;;5052441;28;20217;-73
2021/04/26 11:49:43;;;;;;;4.07;2.20;;;;;;;;;;5052225;28;20605;-73
2021/04/26 11:52:14;;;;;;;4.00;2.20;;;;;;;;;;5052659;28;20186;-73
2021/04/26 11:54:41;;;;;;;5.23;2.40;;;;;;;;;;5052338;28;20546;-73
2021/04/26 11:57:19;;;;;;;3.70;2.00;;;;;;;;;;5035613;28;20731;-72
2021/04/26 11:59:51;;;;;;;3.73;2.10;;;;;;;;;;5052145;28;20166;-72
2021/04/26 12:02:30;;;;;;;4.43;2.20;;;;;;;;;;5052183;28;20233;-75
2021/04/26 12:05:00;;;;;;;2.67;2.30;;;;;;;;;;5052063;28;20260;-73
2021/04/26 12:07:26;;;;;;;4.10;2.37;;;;;;;;;;5052187;28;20190;-73
2021/04/26 12:09:55;;;;;;;4.33;2.33;;;;;;;;;;5053054;28;20178;-73
2021/04/26 12:12:22;;;;;;;2.40;1.80;;;;;;;;;;5051957;28;20255;-73
2021/04/26 12:14:51;;;;;;;2.90;2.20;;;;;;;;;;5051998;28;20261;-72
2021/04/26 12:17:17;;;;;;;3.00;2.30;;;;;;;;;;5051905;28;20210;-73
2021/04/26 12:19:43;;;;;;;3.43;2.00;;;;;;;;;;5051753;28;20181;-73
2021/04/26 12:22:09;;;;;;;3.83;2.23;;;;;;;;;;5051875;28;20201;-72
2021/04/26 12:24:35;;;;;;;3.43;2.17;;;;;;;;;;5035282;28;20572;-73
2021/04/26 12:27:11;;;;;;;2.43;2.10;;;;;;;;;;5051657;28;20185;-72
2021/04/26 12:29:39;;;;;;;5.43;2.43;;;;;;;;;;5051610;28;20174;-73
2021/04/26 12:32:11;;;;;;;3.73;2.40;;;;;;;;;;5051430;28;20230;-72
2021/04/26 12:34:49;;;;;;;3.73;2.23;;;;;;;;;;5052512;28;20257;-74
2021/04/26 12:37:15;;;;;;;2.30;2.10;;;;;;;;;;5052547;28;20573;-72
2021/04/26 12:39:41;;;;;;;2.70;2.10;;;;;;;;;;5052475;28;20656;-73
2021/04/26 12:42:14;;;;;;;4.13;2.23;;;;;;;;;;5051787;28;20198;-73
2021/04/26 12:44:40;;;;;;;3.83;2.40;;;;;;;;;;5051395;28;20641;-74
2021/04/26 12:47:19;;;;;;;5.80;2.27;;;;;;;;;;5051268;28;20384;-73
2021/04/26 12:49:45;;;;;;;3.73;2.50;;;;;;;;;;5055664;28;20189;-75
2021/04/26 12:52:16;;;;;;;4.30;2.50;;;;;;;;;;5052803;28;20677;-75
2021/04/26 12:55:05;;;;;;;3.37;2.03;;;;;;;;;;5062699;28;20254;-75
2021/04/26 12:57:31;;;;;;;3.13;2.30;;;;;;;;;;5062016;28;20205;-75
2021/04/26 12:59:57;;;;;;;3.17;2.27;;;;;;;;;;5054621;28;20649;-75
2021/04/26 13:02:23;;;;;;;3.00;2.17;;;;;;;;;;5051946;28;20259;-75
2021/04/26 13:04:50;;;;;;;6.33;2.17;;;;;;;;;;5052213;28;20728;-74
2021/04/26 13:07:16;;;;;;;2.57;2.20;;;;;;;;;;5034523;28;20562;-74
2021/04/26 13:09:42;;;;;;;4.47;2.30;;;;;;;;;;5050734;28;20181;-74
2021/04/26 13:12:08;;;;;;;3.47;2.40;;;;;;;;;;5050536;28;20203;-74
2021/04/26 13:14:35;;;;;;;3.67;2.30;;;;;;;;;;5050601;28;20235;-75
2021/04/26 13:17:05;;;;;;;3.97;2.03;;;;;;;;;;5050619;28;20202;-73
2021/04/26 13:19:31;;;;;;;2.30;2.00;;;;;;;;;;5050576;28;20196;-74
2021/04/26 13:21:57;;;;;;;2.77;2.20;;;;;;;;;;5049989;28;20198;-73
2021/04/26 13:24:33;;;;;;;2.87;2.20;;;;;;;;;;5032997;28;20180;-74
2021/04/26 13:27:05;;;;;;;4.40;2.37;;;;;;;;;;5034816;28;20185;-73
2021/04/26 13:29:31;;;;;;;2.73;2.33;;;;;;;;;;5051492;28;20601;-74
2021/04/26 13:31:58;;;;;;;3.03;2.20;;;;;;;;;;5033703;28;20249;-73
2021/04/26 13:34:25;;;;;;;2.70;2.20;;;;;;;;;;5050625;28;20265;-73
2021/04/26 13:36:51;;;;;;;6.27;2.43;;;;;;;;;;5050257;28;20202;-74
2021/04/26 13:39:17;;;;;;;3.83;2.00;;;;;;;;;;5050387;28;20174;-74
2021/04/26 13:41:44;;;;;;;3.10;2.20;;;;;;;;;;5050437;28;20198;-74
2021/04/26 13:44:10;;;;;;;3.03;2.30;;;;;;;;;;5050409;28;20243;-74
2021/04/26 13:46:36;;;;;;;3.23;2.40;;;;;;;;;;5050411;28;20645;-74
2021/04/26 13:49:02;;;;;;;4.00;2.23;;;;;;;;;;5051415;28;20307;-74
2021/04/26 13:51:28;;;;;;;5.80;2.67;;;;;;;;;;5051454;28;20243;-74
2021/04/26 13:53:54;;;;;;;4.17;2.63;;;;;;;;;;5054298;28;20261;-74
2021/04/26 13:56:20;;;;;;;3.77;2.50;;;;;;;;;;5054020;28;20180;-75
2021/04/26 13:58:46;;;;;;;5.77;2.70;;;;;;;;;;5054322;28;20545;-74
2021/04/26 14:01:12;;;;;;;3.27;2.30;;;;;;;;;;5054245;28;20233;-74
2021/04/26 14:03:38;;;;;;;6.07;2.33;;;;;;;;;;5054148;28;20170;-75
2021/04/26 14:06:04;;;;;;;4.20;2.30;;;;;;;;;;5052339;28;20178;-75
2021/04/26 14:08:30;;;;;;;3.30;2.40;;;;;;;;;;5053023;28;20711;-75
2021/04/26 14:10:56;;;;;;;6.17;2.53;;;;;;;;;;5052841;28;20198;-75
2021/04/26 14:13:22;;;;;;;3.50;2.40;;;;;;;;;;5036333;28;20700;-75
2021/04/26 14:15:48;;;;;;;4.63;2.93;;;;;;;;;;5052961;28;20179;-75
2021/04/26 14:18:15;;;;;;;3.77;2.77;;;;;;;;;;5052803;28;20210;-74
2021/04/26 14:20:41;;;;;;;3.20;2.77;;;;;;;;;;5055073;28;20170;-75
2021/04/26 14:23:09;;;;;;;3.03;2.40;;;;;;;;;;5053797;28;20177;-75
2021/04/26 14:25:35;;;;;;;3.20;2.30;;;;;;;;;;5053958;28;20216;-75
2021/04/26 14:28:01;;;;;;;5.23;2.43;;;;;;;;;;5054985;28;20179;-75
2021/04/26 14:30:27;;;;;;;4.97;2.60;;;;;;;;;;5054710;28;20206;-75
2021/04/26 14:32:53;;;;;;;4.20;2.47;;;;;;;;;;5053532;28;20301;-75
2021/04/26 14:35:19;;;;;;;3.07;2.20;;;;;;;;;;5053952;28;20233;-75
2021/04/26 14:37:45;;;;;;;2.97;2.60;;;;;;;;;;5053593;28;20693;-75
2021/04/26 14:40:11;;;;;;;4.03;2.30;;;;;;;;;;5053396;28;20182;-75
2021/04/26 14:42:37;;;;;;;3.97;2.50;;;;;;;;;;5054638;28;20202;-75
2021/04/26 14:45:04;;;;;;;3.03;2.57;;;;;;;;;;5053613;28;20611;-75